Aérodrome :
LOGIN :

S'inscrire | Disclaimer

   EN    FR    IT 

 










Légende :    VFR   VFR Marginal   IFR   IFR Intensif   IFR Très Intensif
Visi : 
Plafond : 
>= 8 km
>= 3000ft
5 à 8 km
1000 à 3000 ft
1500m à 5 km
500 à 1000 ft
800 à 1500m
200 à 500 ft
< 800m
< 200 ft
Symboles :   Orages  Brouillard  Fortes neiges  Fortes précipitations  Vent > 20 kt
SIGMETs :   Divers  Orages  Givrage  Turbulence  Onde Orograph.  Cendres Volcan.






- Altitude de l'aérodrome : 20 ft
- Code IATA : DLM


LTBS - Dalaman

DERNIER METAR :
  • 180350Z 06007KT CAVOK 06/04 Q1019 NOSIG RMK RWY19 33006KT

METARs EXPIRÉS :
  • 180320Z 06005KT CAVOK 06/04 Q1019 NOSIG RMK RWY19 33007KT
  • 180250Z 05007KT CAVOK 07/05 Q1019 NOSIG
  • 180220Z 05005KT CAVOK 07/05 Q1018 NOSIG RMK RWY19 34006KT
  • 180150Z 06006KT 040V100 CAVOK 07/05 Q1019 NOSIG RMK RWY19 35004KT
  • 180120Z 07005KT 030V110 CAVOK 07/05 Q1018 NOSIG RMK RWY19 35005KT 320V020

TAF TAF LTBS
Valide du 18 à 00h jusqu'au 19 à 00h UTC


172240Z 1800/1824 VRB02KT CAVOK
BECMG 1802/1804 SCT030
BECMG 1808/1810 18012KT
BECMG 1815/1817 VRB02KT



MET'MAP, la Météo Aéronautique d'un coup d'oeil ! - Copyright ORBIFLY Décembre 2007 - Disclaimer

ORBIFLY MET'MAP TEAM :

Programmation & Développement : Alexandra Zaïnal
Sur une idée originale de : Baudouin d'Aumeries
Assistance à la programmation : Marc-Olivier Méhu
Soutien technique & logistique : Manuel Goepfert

Contact : metmap@orbifly.com




SOURCES & CREDITS :

   NOAA